Time;durP1;ratioP1;P1;durP2;ratioP2;P2;SDS_P1;SDS_P2;PMS_P1;PMS_P2;Temp;Humidity;BMP_temperature;BMP_pressure;BME280_temperature;BME280_humidity;BME280_pressure;Samples;Min_cycle;Max_cycle;Signal;HPM_P1;HPM_P2
2023/07/27 00:02:10;;;;;;;1.58;0.50;;;17.30;78.50;;;;;;4813573;29;20518;-83
2023/07/27 00:04:37;;;;;;;1.83;0.50;;;17.30;78.70;;;;;;4815062;29;20498;-83
2023/07/27 00:07:08;;;;;;;2.72;0.70;;;17.30;78.80;;;;;;4816969;29;20076;-83
2023/07/27 00:09:38;;;;;;;2.45;0.80;;;17.30;78.90;;;;;;4813811;29;20064;-83
2023/07/27 00:12:06;;;;;;;1.33;0.60;;;17.30;79.00;;;;;;4821223;29;20054;-83
2023/07/27 00:14:36;;;;;;;1.15;0.47;;;17.20;79.10;;;;;;4810865;29;20073;-83
2023/07/27 00:17:03;;;;;;;2.45;1.10;;;17.20;79.20;;;;;;4807871;29;20049;-83
2023/07/27 00:19:31;;;;;;;1.58;0.50;;;17.20;79.30;;;;;;4791797;29;20046;-83
2023/07/27 00:21:58;;;;;;;2.03;0.65;;;17.20;79.40;;;;;;4804358;29;20054;-83
2023/07/27 00:24:25;;;;;;;1.42;0.47;;;17.30;79.50;;;;;;4830067;29;20073;-84
2023/07/27 00:26:52;;;;;;;1.73;0.70;;;17.20;79.50;;;;;;4823925;29;20383;-83
2023/07/27 00:29:20;;;;;;;1.23;0.52;;;17.20;79.50;;;;;;4807751;29;20062;-83
2023/07/27 00:31:48;;;;;;;2.03;0.60;;;17.20;79.50;;;;;;4820433;29;20058;-81
2023/07/27 00:34:16;;;;;;;2.22;0.68;;;17.20;79.50;;;;;;4826816;29;20060;-82
2023/07/27 00:37:21;;;;;;;2.13;0.65;;;17.20;79.60;;;;;;4812796;29;20053;-82
2023/07/27 00:39:48;;;;;;;2.60;0.60;;;17.30;79.60;;;;;;4846858;29;20045;-82
2023/07/27 00:42:15;;;;;;;3.55;0.63;;;17.20;79.70;;;;;;4820012;29;20502;-83
2023/07/27 00:44:43;;;;;;;1.60;0.50;;;17.20;79.70;;;;;;4847696;29;20049;-82
2023/07/27 00:47:11;;;;;;;1.50;0.65;;;17.20;79.70;;;;;;4793371;29;20163;-82
2023/07/27 00:49:39;;;;;;;1.92;0.68;;;17.20;79.70;;;;;;4811596;29;20460;-83
2023/07/27 00:52:07;;;;;;;2.35;0.63;;;17.20;80.30;;;;;;4812089;29;20050;-83
2023/07/27 00:54:40;;;;;;;1.63;0.65;;;17.20;79.60;;;;;;4816097;29;20125;-83
2023/07/27 00:57:08;;;;;;;2.13;0.70;;;17.20;79.60;;;;;;4818356;29;20046;-83
2023/07/27 00:59:58;;;;;;;2.45;0.90;;;17.20;79.70;;;;;;4826025;29;20422;-83
2023/07/27 01:02:25;;;;;;;2.58;0.80;;;17.10;79.70;;;;;;4847492;29;20061;-83
2023/07/27 01:04:54;;;;;;;2.50;0.90;;;17.00;79.90;;;;;;4812912;29;20098;-83
2023/07/27 01:07:21;;;;;;;3.92;1.98;;;17.00;80.10;;;;;;4752675;29;20050;-83
2023/07/27 01:09:48;;;;;;;3.42;1.60;;;16.80;80.60;;;;;;4813614;29;20374;-83
2023/07/27 01:12:30;;;;;;;3.47;1.50;;;16.70;80.90;;;;;;4813940;29;20575;-83
2023/07/27 01:15:11;;;;;;;5.25;2.22;;;16.50;81.40;;;;;;4833092;29;20087;-83
2023/07/27 01:17:57;;;;;;;4.78;2.13;;;16.40;81.90;;;;;;4824827;29;20054;-83
2023/07/27 01:20:36;;;;;;;3.45;1.58;;;16.20;82.20;;;;;;4817526;29;20049;-82
2023/07/27 01:23:43;;;;;;;3.63;1.92;;;16.20;82.80;;;;;;4829326;29;20050;-82
2023/07/27 01:26:34;;;;;;;3.38;1.70;;;16.10;83.10;;;;;;4840544;29;20060;-83
2023/07/27 01:29:23;;;;;;;5.45;2.67;;;16.00;83.60;;;;;;4820806;29;20064;-82
2023/07/27 01:31:52;;;;;;;3.78;2.00;;;15.90;84.50;;;;;;4830009;29;20053;-82
2023/07/27 01:34:34;;;;;;;4.15;1.80;;;15.90;84.60;;;;;;4838592;29;20034;-81
2023/07/27 01:37:39;;;;;;;3.42;1.73;;;15.80;84.90;;;;;;4841733;29;20133;-82
2023/07/27 01:40:08;;;;;;;4.60;1.75;;;15.80;85.10;;;;;;4848151;29;20493;-81
2023/07/27 01:42:36;;;;;;;4.13;1.30;;;15.80;85.20;;;;;;4820869;29;20491;-81
2023/07/27 01:45:05;;;;;;;4.15;1.70;;;15.70;85.30;;;;;;4827591;29;20050;-81
2023/07/27 01:47:33;;;;;;;3.58;1.30;;;15.80;85.50;;;;;;4830255;29;20057;-81
2023/07/27 01:50:03;;;;;;;4.13;1.10;;;15.70;85.60;;;;;;4788880;29;20054;-82
2023/07/27 01:52:34;;;;;;;2.60;1.42;;;15.80;85.70;;;;;;4830656;29;20349;-81
2023/07/27 01:55:15;;;;;;;3.22;1.00;;;15.80;85.70;;;;;;4841463;29;20510;-81
2023/07/27 01:57:47;;;;;;;4.13;1.38;;;15.90;85.80;;;;;;4836173;29;20499;-81
2023/07/27 02:00:14;;;;;;;2.95;1.38;;;15.90;85.90;;;;;;4829825;29;20161;-81
2023/07/27 02:02:44;;;;;;;2.50;1.05;;;15.90;86.00;;;;;;4819795;29;20133;-82
2023/07/27 02:05:12;;;;;;;2.25;1.15;;;15.90;86.30;;;;;;4831406;29;20050;-82
2023/07/27 02:07:39;;;;;;;3.25;1.38;;;15.90;86.40;;;;;;4843707;29;20456;-82
2023/07/27 02:10:10;;;;;;;2.28;1.08;;;15.90;86.60;;;;;;4823680;29;20054;-82
2023/07/27 02:12:44;;;;;;;2.42;1.05;;;15.90;86.70;;;;;;4845703;29;20054;-83
2023/07/27 02:15:16;;;;;;;2.30;1.23;;;15.90;87.00;;;;;;4817321;29;20992;-80
2023/07/27 02:17:49;;;;;;;3.70;1.40;;;15.80;87.20;;;;;;4846440;29;20087;-81
2023/07/27 02:20:19;;;;;;;2.10;1.00;;;15.80;87.40;;;;;;4821928;29;20147;-80
2023/07/27 02:22:47;;;;;;;3.67;1.13;;;15.80;87.50;;;;;;4833866;29;20050;-82
2023/07/27 02:25:18;;;;;;;2.38;0.80;;;15.80;87.70;;;;;;4819512;29;20128;-82
2023/07/27 02:27:48;;;;;;;2.67;1.00;;;15.80;87.80;;;;;;4798354;29;20400;-81
2023/07/27 02:30:15;;;;;;;2.63;1.10;;;15.80;87.90;;;;;;4849820;29;20049;-81
2023/07/27 02:32:42;;;;;;;1.67;0.88;;;15.80;88.30;;;;;;4812076;29;20074;-82
2023/07/27 02:35:09;;;;;;;3.55;1.42;;;15.70;88.50;;;;;;4838195;29;20046;-82
2023/07/27 02:37:37;;;;;;;3.38;1.05;;;15.70;88.70;;;;;;4815301;29;20067;-81
2023/07/27 02:40:06;;;;;;;2.50;1.10;;;15.80;88.80;;;;;;4802425;29;20053;-81
2023/07/27 02:42:33;;;;;;;2.78;1.27;;;15.80;89.00;;;;;;4808690;29;20042;-81
2023/07/27 02:45:00;;;;;;;2.67;1.20;;;15.80;89.00;;;;;;4830375;29;20061;-80
2023/07/27 02:47:34;;;;;;;1.73;0.88;;;15.80;89.20;;;;;;4822831;29;20057;-80
2023/07/27 02:50:07;;;;;;;3.03;1.27;;;15.80;89.30;;;;;;4827118;29;20061;-81
2023/07/27 02:52:50;;;;;;;2.78;1.30;;;15.80;89.40;;;;;;4813928;29;20053;-80
2023/07/27 02:55:19;;;;;;;2.85;1.45;;;15.80;89.50;;;;;;4827387;29;20042;-81
2023/07/27 02:57:46;;;;;;;3.85;1.80;;;15.70;89.60;;;;;;4844927;29;20095;-80
2023/07/27 03:00:16;;;;;;;3.42;1.35;;;15.70;89.80;;;;;;4819451;29;20077;-80
2023/07/27 03:02:46;;;;;;;3.63;1.42;;;15.70;89.90;;;;;;4844146;29;20049;-80
2023/07/27 03:05:14;;;;;;;2.75;1.40;;;15.70;90.00;;;;;;4816172;29;20490;-80
2023/07/27 03:07:41;;;;;;;3.50;1.67;;;15.70;90.00;;;;;;4815075;29;20084;-80
2023/07/27 03:10:08;;;;;;;2.65;1.38;;;15.70;90.10;;;;;;4829134;29;20042;-81
2023/07/27 03:12:44;;;;;;;2.95;1.45;;;15.80;90.20;;;;;;4828478;29;20050;-80
2023/07/27 03:15:11;;;;;;;4.65;1.80;;;15.80;90.20;;;;;;4811103;29;20050;-80
2023/07/27 03:17:58;;;;;;;4.53;2.05;;;15.70;90.20;;;;;;4746424;29;20414;-80
2023/07/27 03:20:25;;;;;;;3.80;1.92;;;15.80;90.30;;;;;;4820297;29;20085;-80
2023/07/27 03:22:52;;;;;;;4.18;2.10;;;15.70;90.30;;;;;;4820904;29;20061;-80
2023/07/27 03:25:22;;;;;;;3.95;2.13;;;15.80;90.30;;;;;;4803900;29;20046;-80
2023/07/27 03:27:49;;;;;;;4.78;2.45;;;15.70;90.40;;;;;;4829404;29;20060;-80
2023/07/27 03:30:16;;;;;;;3.60;1.98;;;15.70;90.70;;;;;;4809458;29;20049;-79
2023/07/27 03:32:44;;;;;;;3.65;2.03;;;15.70;90.50;;;;;;4797813;29;20054;-80
2023/07/27 03:35:12;;;;;;;3.20;2.00;;;15.70;90.60;;;;;;4824114;29;20071;-81
2023/07/27 03:37:42;;;;;;;4.03;2.40;;;15.70;90.60;;;;;;4820323;29;20579;-81
2023/07/27 03:40:09;;;;;;;2.83;1.50;;;15.70;91.00;;;;;;4812274;29;20137;-81
2023/07/27 03:42:36;;;;;;;4.80;2.28;;;15.70;90.70;;;;;;4810632;29;20053;-80
2023/07/27 03:45:05;;;;;;;4.20;2.22;;;15.60;90.70;;;;;;4836822;29;20517;-88
2023/07/27 03:47:32;;;;;;;4.85;2.35;;;15.70;90.80;;;;;;4822202;29;20085;-83
2023/07/27 03:50:00;;;;;;;4.97;2.80;;;15.60;90.80;;;;;;4849443;29;20125;-83
2023/07/27 03:52:27;;;;;;;5.50;2.67;;;15.60;90.90;;;;;;4820458;29;20101;-83
2023/07/27 03:54:54;;;;;;;6.85;2.88;;;15.60;90.90;;;;;;4819408;29;20046;-82
2023/07/27 03:57:21;;;;;;;4.72;2.65;;;15.60;91.00;;;;;;4814982;29;20562;-83
2023/07/27 03:59:48;;;;;;;4.43;2.72;;;15.60;91.00;;;;;;4814405;29;20042;-84
2023/07/27 04:02:15;;;;;;;6.28;3.22;;;15.60;91.00;;;;;;4812986;29;20076;-84
2023/07/27 04:04:42;;;;;;;5.82;3.22;;;15.60;91.10;;;;;;4815035;29;20045;-84
2023/07/27 04:07:09;;;;;;;5.22;2.65;;;15.60;91.10;;;;;;4853163;29;20056;-84
2023/07/27 04:09:39;;;;;;;6.18;3.08;;;15.60;91.10;;;;;;4810589;29;20136;-84
2023/07/27 04:12:07;;;;;;;6.60;3.28;;;15.60;91.20;;;;;;4825116;29;20148;-84
2023/07/27 04:14:34;;;;;;;4.85;2.85;;;15.60;91.20;;;;;;4813325;29;20769;-84
2023/07/27 04:17:04;;;;;;;6.10;3.05;;;15.60;91.20;;;;;;4798682;29;20038;-84
2023/07/27 04:19:34;;;;;;;5.68;2.92;;;15.60;91.30;;;;;;4813333;29;20098;-83
2023/07/27 04:22:11;;;;;;;5.25;2.65;;;15.60;91.30;;;;;;4826333;29;20044;-84
2023/07/27 04:24:44;;;;;;;5.25;2.90;;;15.60;91.40;;;;;;4801081;29;20049;-83
2023/07/27 04:27:12;;;;;;;4.70;2.20;;;15.50;91.40;;;;;;4824807;29;20106;-83
2023/07/27 04:29:39;;;;;;;3.83;1.65;;;15.60;91.40;;;;;;4817902;29;20495;-83
2023/07/27 04:32:08;;;;;;;3.83;1.90;;;15.50;91.40;;;;;;4819849;29;20056;-84
2023/07/27 04:34:35;;;;;;;4.78;2.40;;;15.60;91.40;;;;;;4817341;29;20043;-84
2023/07/27 04:37:08;;;;;;;3.88;2.03;;;15.60;91.50;;;;;;4833554;29;20106;-84
2023/07/27 04:39:36;;;;;;;3.78;1.73;;;15.60;91.50;;;;;;4800004;29;20077;-85
2023/07/27 04:42:03;;;;;;;3.75;1.80;;;15.60;91.50;;;;;;4824595;29;20049;-84
2023/07/27 04:45:08;;;;;;;2.83;1.35;;;15.60;91.50;;;;;;4809399;29;20058;-85
2023/07/27 04:47:35;;;;;;;3.58;1.50;;;15.60;91.60;;;;;;4842037;29;20057;-83
2023/07/27 04:50:04;;;;;;;2.75;1.55;;;15.60;91.60;;;;;;4829447;29;20046;-84
2023/07/27 04:52:34;;;;;;;3.95;1.42;;;15.60;91.60;;;;;;4815246;29;20049;-85
2023/07/27 04:55:01;;;;;;;4.50;2.10;;;15.60;91.60;;;;;;4838334;29;20462;-84
2023/07/27 04:57:28;;;;;;;5.20;2.05;;;15.60;91.60;;;;;;4813679;29;20410;-84
2023/07/27 04:59:58;;;;;;;4.15;2.20;;;15.60;91.70;;;;;;4829384;29;20054;-85
2023/07/27 05:02:27;;;;;;;3.45;1.60;;;15.60;91.70;;;;;;4855406;29;20057;-84
2023/07/27 05:04:54;;;;;;;4.07;1.60;;;15.60;91.70;;;;;;4821170;29;20139;-83
2023/07/27 05:07:21;;;;;;;5.05;2.40;;;15.60;91.70;;;;;;4810525;29;20050;-83
2023/07/27 05:09:49;;;;;;;4.07;2.08;;;15.60;91.80;;;;;;4795951;29;20084;-84
2023/07/27 05:12:16;;;;;;;3.50;1.77;;;15.60;91.80;;;;;;4824384;29;20072;-84
2023/07/27 05:14:43;;;;;;;4.00;1.98;;;15.60;91.80;;;;;;4813564;29;20491;-84
2023/07/27 05:17:10;;;;;;;3.80;1.60;;;15.60;91.90;;;;;;4805113;29;20529;-84
2023/07/27 05:19:37;;;;;;;3.92;1.67;;;15.60;91.90;;;;;;4809013;29;20069;-84
2023/07/27 05:22:06;;;;;;;3.35;1.55;;;15.60;91.90;;;;;;4825152;29;20094;-84
2023/07/27 05:24:33;;;;;;;2.72;1.27;;;15.60;92.00;;;;;;4825161;29;20085;-85
2023/07/27 05:27:00;;;;;;;2.67;1.13;;;15.60;92.00;;;;;;4820306;29;20053;-83
2023/07/27 05:29:27;;;;;;;3.10;1.08;;;15.60;92.00;;;;;;4817982;29;20093;-83
2023/07/27 05:31:54;;;;;;;2.80;1.33;;;15.60;92.00;;;;;;4829969;29;20053;-82
2023/07/27 05:34:21;;;;;;;2.10;1.00;;;15.70;92.30;;;;;;4811713;29;21110;-83
2023/07/27 05:36:48;;;;;;;2.55;1.38;;;15.70;92.10;;;;;;4828196;29;20497;-84
2023/07/27 05:39:15;;;;;;;2.40;1.30;;;15.70;92.10;;;;;;4836282;29;20038;-84
2023/07/27 05:41:42;;;;;;;2.65;1.00;;;15.70;92.10;;;;;;4801733;29;20455;-84
2023/07/27 05:44:09;;;;;;;2.80;1.20;;;15.80;92.10;;;;;;4805841;29;20110;-83
2023/07/27 05:46:36;;;;;;;2.50;1.20;;;15.70;92.20;;;;;;4829540;29;20050;-83
2023/07/27 05:49:09;;;;;;;3.00;1.08;;;15.70;92.20;;;;;;4821739;29;20503;-82
2023/07/27 05:51:41;;;;;;;2.85;1.25;;;15.70;92.30;;;;;;4826237;29;20070;-82
2023/07/27 05:54:08;;;;;;;3.47;1.13;;;15.70;92.30;;;;;;4796143;29;20054;-82
2023/07/27 05:56:38;;;;;;;3.25;1.35;;;15.70;92.30;;;;;;4823905;29;20042;-82
2023/07/27 05:59:08;;;;;;;3.33;1.20;;;15.70;92.40;;;;;;4847504;29;20060;-82
2023/07/27 06:01:41;;;;;;;2.42;1.20;;;15.60;92.50;;;;;;4832508;29;20054;-81
2023/07/27 06:04:08;;;;;;;2.53;1.30;;;15.60;92.60;;;;;;4822639;29;20067;-80
2023/07/27 06:06:41;;;;;;;3.20;1.00;;;15.60;92.60;;;;;;4817014;29;20114;-82
2023/07/27 06:09:12;;;;;;;1.60;0.80;;;15.70;92.60;;;;;;4805837;29;20141;-83
2023/07/27 06:11:39;;;;;;;3.22;1.13;;;15.70;92.60;;;;;;4816281;29;20080;-83
2023/07/27 06:14:06;;;;;;;2.00;0.90;;;15.80;92.60;;;;;;4820485;29;20428;-83
2023/07/27 06:16:33;;;;;;;2.05;0.80;;;15.80;92.60;;;;;;4847421;29;20058;-82
2023/07/27 06:19:03;;;;;;;1.73;0.80;;;15.80;92.60;;;;;;4820888;29;21122;-80
2023/07/27 06:21:32;;;;;;;1.98;1.02;;;15.80;92.70;;;;;;4819991;29;20050;-82
2023/07/27 06:23:59;;;;;;;1.38;0.68;;;15.80;92.70;;;;;;4819806;29;20065;-81
2023/07/27 06:26:27;;;;;;;1.42;0.70;;;15.80;92.70;;;;;;4819000;29;20049;-82
2023/07/27 06:28:54;;;;;;;1.63;0.60;;;15.80;92.70;;;;;;4842532;29;20070;-82
2023/07/27 06:31:21;;;;;;;1.38;0.57;;;15.90;92.80;;;;;;4814603;29;20057;-83
2023/07/27 06:33:49;;;;;;;2.22;0.80;;;15.90;92.80;;;;;;4826977;29;20503;-83
2023/07/27 06:36:17;;;;;;;1.27;0.63;;;15.90;92.90;;;;;;4802622;29;20054;-83
2023/07/27 06:38:44;;;;;;;1.55;0.60;;;15.90;93.20;;;;;;4826525;29;20050;-83
2023/07/27 06:41:11;;;;;;;1.02;0.50;;;15.90;93.00;;;;;;4823755;29;20038;-83
2023/07/27 06:43:40;;;;;;;1.27;0.50;;;15.90;93.00;;;;;;4814916;29;20054;-83
2023/07/27 06:46:07;;;;;;;1.40;0.57;;;16.00;93.00;;;;;;4824806;29;20042;-82
2023/07/27 06:48:34;;;;;;;1.10;0.60;;;16.00;92.90;;;;;;4824876;29;20060;-82
2023/07/27 06:51:09;;;;;;;1.63;0.60;;;16.00;92.90;;;;;;4821806;29;20058;-83
2023/07/27 06:53:36;;;;;;;1.15;0.57;;;16.00;93.00;;;;;;4823273;29;20073;-82
2023/07/27 06:56:11;;;;;;;1.00;0.50;;;16.00;93.00;;;;;;4814984;29;20057;-82
2023/07/27 06:59:16;;;;;;;0.88;0.40;;;16.10;93.00;;;;;;4828740;29;20116;-83
2023/07/27 07:01:43;;;;;;;0.85;0.30;;;16.10;93.00;;;;;;4844476;29;20050;-82
2023/07/27 07:04:12;;;;;;;0.90;0.40;;;16.20;93.00;;;;;;4808416;29;20509;-82
2023/07/27 07:06:40;;;;;;;1.08;0.50;;;16.20;93.00;;;;;;4838253;29;20050;-83
2023/07/27 07:09:09;;;;;;;0.90;0.40;;;16.20;93.10;;;;;;4845561;29;20495;-83
2023/07/27 07:11:36;;;;;;;0.93;0.40;;;16.20;93.10;;;;;;4829850;29;20042;-83
2023/07/27 07:14:04;;;;;;;0.90;0.30;;;16.30;93.10;;;;;;4840290;29;20097;-83
2023/07/27 07:16:32;;;;;;;0.52;0.20;;;16.30;93.10;;;;;;4832322;29;20475;-83
2023/07/27 07:18:59;;;;;;;0.43;0.30;;;16.30;93.10;;;;;;4812617;29;20464;-82
2023/07/27 07:21:27;;;;;;;1.10;0.50;;;16.30;93.20;;;;;;4808949;29;20037;-82
2023/07/27 07:23:54;;;;;;;0.45;0.25;;;16.40;93.30;;;;;;4811499;29;20097;-82
2023/07/27 07:26:21;;;;;;;1.10;0.40;;;16.40;93.30;;;;;;4823694;29;20057;-80
2023/07/27 07:28:48;;;;;;;0.70;0.38;;;16.40;93.50;;;;;;4816326;29;20052;-82
2023/07/27 07:31:15;;;;;;;0.95;0.30;;;16.40;93.50;;;;;;4803671;29;20081;-81
2023/07/27 07:33:42;;;;;;;0.60;0.40;;;16.40;93.40;;;;;;4764901;29;20438;-82
2023/07/27 07:36:09;;;;;;;0.68;0.30;;;16.60;93.40;;;;;;4817644;29;20064;-81
2023/07/27 07:38:39;;;;;;;1.20;0.60;;;16.60;93.40;;;;;;4830378;29;20926;-82
2023/07/27 07:41:07;;;;;;;0.80;0.30;;;16.60;93.40;;;;;;4831492;29;20065;-85
2023/07/27 07:43:40;;;;;;;1.13;0.40;;;16.60;93.40;;;;;;4605735;29;20403;-83
2023/07/27 07:46:10;;;;;;;1.30;0.40;;;16.60;93.50;;;;;;4675700;29;20049;-84
2023/07/27 07:48:38;;;;;;;0.65;0.35;;;16.70;93.60;;;;;;4830491;29;20058;-83
2023/07/27 07:51:15;;;;;;;0.30;0.30;;;16.80;93.50;;;;;;4828764;29;20406;-88
2023/07/27 07:53:54;;;;;;;1.00;0.40;;;16.80;93.50;;;;;;4840708;29;20058;-86
2023/07/27 07:56:21;;;;;;;0.77;0.35;;;17.00;93.40;;;;;;4836484;29;20057;-87
2023/07/27 07:58:49;;;;;;;0.88;0.43;;;17.00;93.40;;;;;;4833994;29;20049;-87
2023/07/27 08:01:16;;;;;;;1.00;0.55;;;17.00;93.50;;;;;;4822011;29;20052;-86
2023/07/27 08:03:43;;;;;;;1.10;0.40;;;17.00;93.60;;;;;;4803747;29;20081;-88
2023/07/27 08:06:11;;;;;;;0.95;0.40;;;17.00;93.60;;;;;;4806644;29;20049;-88
2023/07/27 08:08:39;;;;;;;0.73;0.40;;;17.10;93.60;;;;;;4825214;29;20054;-84
2023/07/27 08:11:06;;;;;;;0.50;0.40;;;17.20;93.60;;;;;;4797632;29;20069;-84
2023/07/27 08:13:34;;;;;;;0.90;0.43;;;17.20;93.50;;;;;;4830675;29;20944;-84
2023/07/27 08:16:03;;;;;;;0.93;0.30;;;17.30;93.50;;;;;;4834047;29;20088;-84
2023/07/27 08:18:37;;;;;;;0.60;0.30;;;17.40;93.40;;;;;;4817601;29;20136;-85
2023/07/27 08:21:08;;;;;;;0.70;0.38;;;17.40;93.40;;;;;;4813669;29;20453;-84
2023/07/27 08:23:37;;;;;;;0.60;0.30;;;17.50;93.40;;;;;;4814201;29;20386;-83
2023/07/27 08:26:19;;;;;;;0.60;0.30;;;17.60;93.40;;;;;;4827061;29;20057;-85
2023/07/27 08:29:19;;;;;;;0.70;0.30;;;17.60;93.40;;;;;;4814466;29;20529;-85
2023/07/27 08:31:46;;;;;;;0.85;0.30;;;17.60;93.40;;;;;;4846975;29;21484;-83
2023/07/27 08:34:13;;;;;;;0.82;0.40;;;17.60;93.40;;;;;;4823821;29;20495;-83
2023/07/27 08:36:40;;;;;;;0.80;0.35;;;17.60;93.50;;;;;;4792347;29;20042;-84
2023/07/27 08:39:08;;;;;;;0.90;0.30;;;17.60;93.50;;;;;;4827113;29;20403;-84
2023/07/27 08:41:35;;;;;;;1.02;0.40;;;17.70;93.50;;;;;;4832797;29;20046;-82
2023/07/27 08:44:08;;;;;;;0.63;0.40;;;17.70;93.50;;;;;;4808614;29;20049;-84
2023/07/27 08:47:13;;;;;;;0.43;0.30;;;17.80;93.40;;;;;;4812542;29;20103;-87
2023/07/27 08:49:43;;;;;;;1.05;0.50;;;18.00;93.40;;;;;;4841604;29;20054;-87
2023/07/27 08:52:14;;;;;;;0.80;0.32;;;18.00;93.60;;;;;;4824855;29;20545;-84
2023/07/27 08:54:41;;;;;;;0.82;0.32;;;18.00;93.30;;;;;;4833460;29;20053;-87
2023/07/27 08:57:09;;;;;;;1.73;0.40;;;18.10;93.40;;;;;;4850080;29;20045;-84
2023/07/27 08:59:37;;;;;;;0.75;0.30;;;18.00;93.40;;;;;;4805775;29;20052;-85
2023/07/27 09:02:06;;;;;;;1.33;0.60;;;18.10;93.40;;;;;;4817815;29;20081;-86
2023/07/27 09:04:33;;;;;;;1.50;0.60;;;18.20;93.50;;;;;;4809546;29;20057;-88
2023/07/27 09:07:07;;;;;;;1.63;0.60;;;18.20;93.50;;;;;;4810577;29;20084;-87
2023/07/27 09:09:35;;;;;;;1.42;0.45;;;18.20;93.50;;;;;;4810017;29;20076;-87
2023/07/27 09:12:07;;;;;;;1.02;0.50;;;18.20;93.60;;;;;;4813938;29;20053;-87
2023/07/27 09:15:12;;;;;;;1.48;0.52;;;18.20;93.50;;;;;;4818057;29;20060;-86
2023/07/27 09:17:40;;;;;;;1.40;0.88;;;18.20;93.60;;;;;;4849321;29;20070;-87
2023/07/27 09:20:12;;;;;;;1.60;0.60;;;18.10;93.80;;;;;;4808626;29;20068;-88
2023/07/27 09:22:39;;;;;;;1.30;0.70;;;18.10;93.80;;;;;;4837268;29;20089;-88
2023/07/27 09:25:07;;;;;;;1.63;0.60;;;18.10;93.80;;;;;;4817870;29;20073;-89
2023/07/27 09:27:44;;;;;;;1.30;0.63;;;18.00;93.80;;;;;;4848441;29;20046;-81
2023/07/27 09:30:16;;;;;;;1.70;0.50;;;18.10;94.00;;;;;;4821772;29;20073;-79
2023/07/27 09:32:43;;;;;;;2.58;0.63;;;18.00;94.00;;;;;;4831677;29;20555;-80
2023/07/27 09:35:14;;;;;;;0.88;0.50;;;18.00;94.10;;;;;;4813950;29;20175;-80
2023/07/27 09:37:49;;;;;;;1.83;0.50;;;18.00;94.30;;;;;;4829537;29;20140;-80
2023/07/27 09:40:24;;;;;;;1.38;0.70;;;18.00;94.30;;;;;;4829552;29;20136;-80
2023/07/27 09:42:51;;;;;;;1.85;1.02;;;18.10;94.40;;;;;;4844128;29;20053;-80
2023/07/27 09:45:19;;;;;;;1.65;0.80;;;18.00;94.40;;;;;;4830187;29;20049;-80
2023/07/27 09:47:48;;;;;;;2.25;0.88;;;17.90;94.60;;;;;;4810690;29;20077;-80
2023/07/27 09:50:15;;;;;;;2.10;0.90;;;18.00;94.60;;;;;;4812925;29;20570;-80
2023/07/27 09:52:44;;;;;;;1.75;1.00;;;18.00;94.70;;;;;;4807867;29;20387;-80
2023/07/27 09:55:13;;;;;;;2.90;1.15;;;18.00;94.60;;;;;;4810049;29;20053;-79
2023/07/27 09:57:42;;;;;;;1.90;1.05;;;18.10;94.70;;;;;;4824046;29;20049;-79
2023/07/27 10:00:10;;;;;;;1.98;0.95;;;18.10;94.70;;;;;;4800228;29;20088;-79
2023/07/27 10:02:45;;;;;;;1.75;1.00;;;18.10;94.60;;;;;;4802897;29;20402;-79
2023/07/27 10:05:12;;;;;;;2.45;1.10;;;18.20;94.70;;;;;;4829674;29;20430;-81
2023/07/27 10:07:43;;;;;;;2.50;0.95;;;18.20;94.70;;;;;;4824360;29;20201;-78
2023/07/27 10:10:42;;;;;;;2.33;1.50;;;18.20;94.70;;;;;;4838244;29;20110;-82
2023/07/27 10:13:39;;;;;;;2.10;1.38;;;18.30;94.70;;;;;;4830294;29;20046;-83
2023/07/27 10:16:09;;;;;;;3.58;2.05;;;18.30;94.70;;;;;;4846996;29;20057;-84
2023/07/27 10:18:48;;;;;;;3.60;2.45;;;18.20;95.00;;;;;;4840710;29;20046;-86
2023/07/27 10:21:40;;;;;;;3.70;2.05;;;18.20;95.10;;;;;;4820408;29;20077;-84
2023/07/27 10:24:07;;;;;;;3.55;2.20;;;18.20;95.20;;;;;;4830696;29;20534;-85
2023/07/27 10:26:43;;;;;;;3.40;2.30;;;18.20;95.20;;;;;;4802799;29;20151;-85
2023/07/27 10:29:15;;;;;;;3.65;2.20;;;18.30;95.20;;;;;;4827970;29;20053;-85
2023/07/27 10:31:44;;;;;;;3.33;2.20;;;18.30;95.30;;;;;;4831788;29;20061;-82
2023/07/27 10:34:17;;;;;;;4.43;2.22;;;18.40;95.40;;;;;;4833070;29;20065;-82
2023/07/27 10:37:00;;;;;;;3.00;1.98;;;18.30;95.30;;;;;;4829819;29;20065;-79
2023/07/27 10:39:43;;;;;;;3.05;2.05;;;18.40;95.40;;;;;;4830118;29;20065;-83
2023/07/27 10:42:33;;;;;;;3.65;2.58;;;18.40;95.30;;;;;;4813651;29;20122;-83
2023/07/27 10:45:09;;;;;;;5.53;2.67;;;18.40;95.30;;;;;;4853851;29;20888;-82
2023/07/27 10:47:37;;;;;;;3.03;1.95;;;18.40;95.40;;;;;;4815253;29;20058;-85
2023/07/27 10:50:07;;;;;;;3.90;2.30;;;18.40;95.40;;;;;;4830879;29;20058;-83
2023/07/27 10:52:39;;;;;;;4.53;2.20;;;18.50;95.40;;;;;;4829040;29;20141;-84
2023/07/27 10:55:07;;;;;;;3.30;2.30;;;18.50;95.40;;;;;;4811659;29;20046;-82
2023/07/27 10:57:35;;;;;;;5.25;3.08;;;18.50;95.50;;;;;;4828610;29;20049;-84
2023/07/27 11:00:09;;;;;;;2.75;1.83;;;18.50;95.50;;;;;;4822903;29;20065;-84
2023/07/27 11:02:39;;;;;;;3.88;1.85;;;18.50;95.50;;;;;;4827411;29;20403;-84
2023/07/27 11:05:08;;;;;;;3.17;1.97;;;18.60;95.50;;;;;;4841123;29;20514;-83
2023/07/27 11:07:40;;;;;;;3.22;1.90;;;18.60;95.40;;;;;;4814041;29;20529;-82
2023/07/27 11:10:10;;;;;;;3.47;2.45;;;18.60;95.40;;;;;;4833145;29;20057;-78
2023/07/27 11:13:00;;;;;;;3.13;1.92;;;18.60;95.50;;;;;;4831502;29;20056;-81
2023/07/27 11:15:29;;;;;;;4.53;3.30;;;18.50;95.40;;;;;;4837237;29;20137;-83
2023/07/27 11:18:01;;;;;;;4.13;2.80;;;18.50;95.60;;;;;;4851331;29;20050;-82
2023/07/27 11:20:33;;;;;;;3.67;2.42;;;18.50;96.00;;;;;;4825361;29;20072;-82
2023/07/27 11:23:01;;;;;;;3.35;2.08;;;18.60;95.60;;;;;;4831143;29;20049;-84
2023/07/27 11:25:32;;;;;;;4.65;2.95;;;18.60;95.50;;;;;;4814779;29;20142;-81
2023/07/27 11:28:00;;;;;;;5.03;3.28;;;18.60;95.60;;;;;;4847572;29;20673;-78
2023/07/27 11:30:36;;;;;;;3.63;2.22;;;18.60;95.70;;;;;;4827185;29;20494;-78
2023/07/27 11:33:06;;;;;;;4.80;3.00;;;18.60;95.70;;;;;;4814752;29;20144;-83
2023/07/27 11:35:43;;;;;;;3.22;2.05;;;18.70;95.70;;;;;;4809243;29;20058;-83
2023/07/27 11:38:10;;;;;;;3.60;1.70;;;18.70;95.70;;;;;;4818262;29;20049;-84
2023/07/27 11:40:43;;;;;;;4.22;2.72;;;18.80;95.60;;;;;;4810940;29;20080;-83
2023/07/27 11:43:11;;;;;;;3.05;1.90;;;18.80;95.50;;;;;;4825018;29;20129;-81
2023/07/27 11:45:40;;;;;;;4.20;2.38;;;18.80;95.50;;;;;;4834703;29;20094;-81
2023/07/27 11:48:09;;;;;;;3.08;2.10;;;18.90;95.50;;;;;;4828379;29;20045;-81
2023/07/27 11:50:38;;;;;;;9.30;2.50;;;18.90;95.50;;;;;;4806727;29;20053;-83
2023/07/27 11:53:11;;;;;;;5.07;2.58;;;18.90;95.50;;;;;;4803653;29;20050;-83
2023/07/27 11:55:59;;;;;;;3.90;2.63;;;18.90;95.40;;;;;;4821894;29;20065;-82
2023/07/27 11:58:27;;;;;;;3.63;2.22;;;18.80;95.60;;;;;;4833513;29;20050;-80
2023/07/27 12:00:55;;;;;;;3.95;2.50;;;18.80;95.60;;;;;;4823402;29;20601;-83
2023/07/27 12:03:24;;;;;;;4.50;2.55;;;19.00;95.60;;;;;;4826774;29;20058;-83
2023/07/27 12:05:55;;;;;;;4.10;2.75;;;19.10;95.40;;;;;;4831347;29;20050;-82
2023/07/27 12:08:22;;;;;;;3.58;2.65;;;19.20;95.30;;;;;;4803024;29;20073;-80
2023/07/27 12:10:59;;;;;;;3.17;2.22;;;19.20;95.30;;;;;;4633929;29;20401;-81
2023/07/27 12:13:34;;;;;;;3.50;2.30;;;19.30;95.60;;;;;;4787650;29;20054;-82
2023/07/27 12:16:08;;;;;;;3.33;2.08;;;19.30;95.20;;;;;;4822976;29;20061;-83
2023/07/27 12:18:41;;;;;;;3.75;2.38;;;19.40;95.10;;;;;;4808800;29;20046;-80
2023/07/27 12:21:12;;;;;;;3.10;1.85;;;19.40;95.10;;;;;;4810816;29;20059;-79
2023/07/27 12:23:42;;;;;;;2.65;1.60;;;19.50;95.10;;;;;;4811863;29;20119;-81
2023/07/27 12:26:09;;;;;;;2.53;1.50;;;19.50;95.00;;;;;;4825919;29;20504;-78
2023/07/27 12:28:39;;;;;;;2.70;1.80;;;19.60;94.90;;;;;;4831066;29;20588;-78
2023/07/27 12:31:09;;;;;;;3.22;2.30;;;19.60;94.90;;;;;;4810794;29;20050;-79
2023/07/27 12:33:39;;;;;;;3.58;2.15;;;19.50;94.90;;;;;;4798292;29;20537;-79
2023/07/27 12:36:06;;;;;;;4.47;3.10;;;19.50;95.00;;;;;;4818120;29;20050;-80
2023/07/27 12:38:34;;;;;;;3.92;2.67;;;19.50;95.00;;;;;;4798016;29;20173;-79
2023/07/27 12:41:13;;;;;;;3.40;2.40;;;19.60;95.00;;;;;;4826690;29;20095;-80
2023/07/27 12:43:41;;;;;;;4.93;3.03;;;19.60;94.90;;;;;;4829307;29;20042;-79
2023/07/27 12:46:31;;;;;;;3.40;2.33;;;19.60;94.90;;;;;;4813800;29;20403;-79
2023/07/27 12:48:58;;;;;;;2.38;1.60;;;19.70;94.90;;;;;;4840435;29;20070;-78
2023/07/27 12:51:26;;;;;;;3.67;2.40;;;19.70;94.80;;;;;;4842936;29;20517;-78
2023/07/27 12:53:53;;;;;;;2.90;1.60;;;19.70;94.80;;;;;;4812819;29;20519;-79
2023/07/27 12:56:20;;;;;;;2.08;1.23;;;19.70;95.10;;;;;;4804347;29;20510;-79
2023/07/27 12:58:47;;;;;;;2.97;2.00;;;19.70;94.80;;;;;;4822593;29;20041;-79
2023/07/27 13:01:14;;;;;;;3.15;1.85;;;19.80;94.80;;;;;;4814277;29;21459;-78
2023/07/27 13:03:41;;;;;;;3.67;2.60;;;19.90;94.70;;;;;;4835156;29;20137;-81
2023/07/27 13:06:09;;;;;;;4.47;2.70;;;19.90;94.60;;;;;;4810559;29;20060;-81
2023/07/27 13:08:36;;;;;;;3.45;2.65;;;19.80;94.60;;;;;;4820409;29;20058;-81